Time;durP1;ratioP1;P1;durP2;ratioP2;P2;SDS_P1;SDS_P2;PMS_P1;PMS_P2;Temp;Humidity;BMP_temperature;BMP_pressure;BME280_temperature;BME280_humidity;BME280_pressure;Samples;Min_cycle;Max_cycle;Signal;HPM_P1;HPM_P2
2021/10/16 00:01:15;;;;;;;;;5.75;5.75;;;;;21.21;43.56;101741.31;5007969;28;51170;-55
2021/10/16 00:03:41;;;;;;;;;7.00;7.00;;;;;21.20;44.02;101739.63;5002030;28;51240;-54
2021/10/16 00:06:06;;;;;;;;;7.00;6.00;;;;;21.19;43.69;101736.03;4998789;28;51023;-53
2021/10/16 00:08:32;;;;;;;;;7.00;7.00;;;;;21.19;44.01;101735.16;5014091;28;51522;-54
2021/10/16 00:10:57;;;;;;;;;5.75;4.50;;;;;21.18;43.66;101737.06;5013328;28;51103;-54
2021/10/16 00:13:23;;;;;;;;;8.00;6.00;;;;;21.17;43.58;101735.38;5007880;28;51282;-54
2021/10/16 00:15:48;;;;;;;;;7.75;5.50;;;;;21.18;44.13;101738.97;5015337;28;51000;-53
2021/10/16 00:18:14;;;;;;;;;6.00;6.00;;;;;21.18;44.13;101739.84;5013661;28;51218;-54
2021/10/16 00:20:40;;;;;;;;;5.25;5.25;;;;;21.16;43.64;101730.94;5015207;28;51091;-53
2021/10/16 00:23:07;;;;;;;;;8.00;7.00;;;;;21.16;43.74;101741.94;5006711;28;51147;-54
2021/10/16 00:25:32;;;;;;;;;4.75;4.75;;;;;21.16;44.09;101741.94;5005074;28;51011;-54
2021/10/16 00:27:58;;;;;;;;;7.00;6.00;;;;;21.16;43.71;101750.22;4998070;28;51090;-54
2021/10/16 00:30:23;;;;;;;;;6.00;6.00;;;;;21.15;43.80;101745.72;4996825;28;51038;-53
2021/10/16 00:32:48;;;;;;;;;7.25;6.00;;;;;21.15;43.79;101748.47;4996686;28;51060;-54
2021/10/16 00:35:14;;;;;;;;;7.75;6.00;;;;;21.14;43.68;101755.06;5015663;28;51518;-53
2021/10/16 00:37:39;;;;;;;;;6.25;6.25;;;;;21.14;43.83;101748.69;5007907;28;51055;-54
2021/10/16 00:40:06;;;;;;;;;7.00;5.75;;;;;21.14;43.79;101745.94;4996450;28;51131;-54
2021/10/16 00:42:31;;;;;;;;;8.25;6.00;;;;;21.12;43.91;101740.63;4998135;28;51114;-56
2021/10/16 00:45:01;;;;;;;;;6.75;5.50;;;;;21.12;44.14;101740.63;5015490;28;51105;-56
2021/10/16 00:47:27;;;;;;;;;4.00;4.00;;;;;21.11;43.93;101741.69;5006091;28;51904;-55
2021/10/16 00:49:52;;;;;;;;;7.75;6.25;;;;;21.11;44.18;101747.22;4997050;28;51120;-55
2021/10/16 00:52:18;;;;;;;;;7.00;5.50;;;;;21.10;43.95;101745.50;5000270;28;51137;-56
2021/10/16 00:54:43;;;;;;;;;8.25;6.00;;;;;21.10;44.06;101745.50;5014940;28;50976;-56
2021/10/16 00:57:11;;;;;;;;;5.50;5.50;;;;;21.10;43.87;101747.41;5004745;28;51334;-54
2021/10/16 00:59:37;;;;;;;;;6.00;5.00;;;;;21.10;43.83;101745.50;4995639;28;51354;-53
2021/10/16 01:02:02;;;;;;;;;8.75;7.25;;;;;21.10;44.27;101747.41;4996362;28;51466;-54
2021/10/16 01:04:28;;;;;;;;;9.00;8.25;;;;;21.09;43.81;101742.97;4996084;28;51178;-55
2021/10/16 01:06:53;;;;;;;;;5.00;5.00;;;;;21.09;43.76;101734.69;5000882;28;51901;-54
2021/10/16 01:09:19;;;;;;;;;6.50;5.25;;;;;21.09;43.70;101737.47;5013463;28;51186;-54
2021/10/16 01:11:52;;;;;;;;;6.50;6.50;;;;;21.09;43.93;101740.22;5014310;28;51129;-53
2021/10/16 01:14:19;;;;;;;;;7.25;7.00;;;;;21.09;43.71;101737.47;5015368;28;51277;-51
2021/10/16 01:16:49;;;;;;;;;7.50;6.25;;;;;21.08;44.28;101735.75;5014154;28;51734;-54
2021/10/16 01:19:17;;;;;;;;;5.00;5.00;;;;;21.08;43.99;101733.00;5013495;28;51061;-54
2021/10/16 01:21:45;;;;;;;;;7.00;5.25;;;;;21.08;43.96;101730.25;5014809;28;51143;-54
2021/10/16 01:24:12;;;;;;;;;9.25;5.75;;;;;21.07;43.95;101734.91;5014851;28;52531;-53
2021/10/16 01:26:39;;;;;;;;;5.75;4.00;;;;;21.06;43.98;101727.72;5008331;28;52007;-53
2021/10/16 01:29:07;;;;;;;;;5.75;4.00;;;;;21.05;43.74;101726.00;4995678;28;51351;-52
2021/10/16 01:31:33;;;;;;;;;5.50;5.25;;;;;21.05;44.13;101723.25;4995561;28;51286;-54
2021/10/16 01:34:00;;;;;;;;;4.00;4.00;;;;;21.04;44.29;101721.53;4995439;28;51061;-53
2021/10/16 01:36:38;;;;;;;;;6.00;4.00;;;;;21.05;44.25;101717.75;4996344;28;51285;-54
2021/10/16 01:39:03;;;;;;;;;5.25;4.25;;;;;21.04;43.91;101714.09;4995162;28;51259;-53
2021/10/16 01:41:29;;;;;;;;;5.75;4.00;;;;;21.04;44.13;101716.88;4995501;28;51150;-54
2021/10/16 01:43:54;;;;;;;;;5.00;5.00;;;;;21.04;43.75;101716.00;4996676;28;51083;-54
2021/10/16 01:46:19;;;;;;;;;6.00;5.50;;;;;21.03;43.79;101722.59;4996140;28;51892;-52
2021/10/16 01:48:45;;;;;;;;;6.75;5.00;;;;;21.02;44.13;101718.97;5011575;28;50949;-54
2021/10/16 01:51:17;;;;;;;;;6.00;5.50;;;;;21.01;43.70;101716.44;5014567;28;51403;-54
2021/10/16 01:53:44;;;;;;;;;4.25;4.25;;;;;21.01;44.39;101725.53;4999095;28;51271;-54
2021/10/16 01:56:09;;;;;;;;;3.75;3.75;;;;;21.01;44.25;101720.03;4995822;28;51047;-53
2021/10/16 01:58:36;;;;;;;;;5.00;5.00;;;;;21.00;44.15;101715.59;5011082;28;51659;-54
2021/10/16 02:01:01;;;;;;;;;6.75;6.50;;;;;21.00;43.76;101710.06;4997010;28;51200;-54
2021/10/16 02:03:27;;;;;;;;;5.00;5.00;;;;;21.00;44.20;101710.06;5011628;28;51174;-55
2021/10/16 02:05:52;;;;;;;;;6.50;4.75;;;;;21.00;44.31;101706.47;5012359;28;51069;-54
2021/10/16 02:08:17;;;;;;;;;5.75;4.25;;;;;21.00;44.17;101714.75;5014066;28;51288;-55
2021/10/16 02:10:43;;;;;;;;;5.75;4.00;;;;;20.99;44.07;101702.03;4996196;28;51230;-53
2021/10/16 02:13:09;;;;;;;;;6.00;4.50;;;;;20.99;44.09;101707.53;5015208;28;51062;-53
2021/10/16 02:15:34;;;;;;;;;6.75;4.00;;;;;20.99;44.27;101707.53;5005818;28;52166;-52
2021/10/16 02:18:00;;;;;;;;;3.75;3.75;;;;;20.99;44.14;101700.13;4998703;28;51448;-51
2021/10/16 02:20:25;;;;;;;;;5.00;5.00;;;;;20.99;44.27;101705.63;4998331;28;51025;-53
2021/10/16 02:22:50;;;;;;;;;4.50;2.75;;;;;20.99;43.98;101704.78;4998714;28;51083;-54
2021/10/16 02:25:16;;;;;;;;;4.75;3.25;;;;;20.98;43.87;101703.09;4999140;28;51130;-54
2021/10/16 02:27:41;;;;;;;;;3.75;3.75;;;;;20.97;44.03;101702.22;5009882;28;51913;-53
2021/10/16 02:30:08;;;;;;;;;3.75;3.75;;;;;20.96;43.93;101700.53;5016849;28;51132;-53
2021/10/16 02:32:34;;;;;;;;;6.50;6.00;;;;;20.96;44.11;101699.69;5013449;28;51155;-54
2021/10/16 02:35:00;;;;;;;;;3.00;3.00;;;;;20.95;44.50;101696.09;4999056;28;51077;-54
2021/10/16 02:37:25;;;;;;;;;5.00;3.75;;;;;20.96;43.96;101695.03;4999623;28;51540;-52
2021/10/16 02:39:50;;;;;;;;;3.50;3.50;;;;;20.95;43.95;101698.00;5009470;28;50979;-52
2021/10/16 02:42:16;;;;;;;;;3.25;3.00;;;;;20.95;44.16;101696.09;4998233;28;51097;-54
2021/10/16 02:44:41;;;;;;;;;4.00;4.00;;;;;20.94;43.90;101699.00;4998483;28;51918;-53
2021/10/16 02:47:06;;;;;;;;;6.75;5.00;;;;;20.94;44.10;101701.78;4997970;28;51174;-52
2021/10/16 02:49:32;;;;;;;;;3.75;3.75;;;;;20.93;44.25;101697.31;4997727;28;51060;-53
2021/10/16 02:51:57;;;;;;;;;3.00;3.00;;;;;20.93;44.42;101695.41;4998308;28;51315;-52
2021/10/16 02:54:22;;;;;;;;;3.75;3.50;;;;;20.91;44.16;101694.78;5006562;28;51204;-52
2021/10/16 02:56:48;;;;;;;;;4.00;4.00;;;;;20.92;43.96;101690.13;5006627;28;51146;-53
2021/10/16 02:59:14;;;;;;;;;3.00;3.00;;;;;20.92;44.23;101699.22;4997844;28;51181;-54
2021/10/16 03:01:39;;;;;;;;;5.25;3.75;;;;;20.92;43.94;101690.13;4997804;28;51059;-53
2021/10/16 03:04:05;;;;;;;;;3.50;3.50;;;;;20.91;43.84;101683.75;4998468;28;51116;-50
2021/10/16 03:06:30;;;;;;;;;5.00;4.00;;;;;20.91;44.30;101685.66;5001010;28;51147;-55
2021/10/16 03:08:55;;;;;;;;;4.00;4.00;;;;;20.92;43.98;101690.13;5016687;28;51197;-52
2021/10/16 03:11:21;;;;;;;;;5.75;2.75;;;;;20.91;44.12;101677.41;5015806;28;51030;-54
2021/10/16 03:13:46;;;;;;;;;8.75;5.00;;;;;20.91;44.11;101688.41;5016238;28;51999;-55
2021/10/16 03:16:11;;;;;;;;;3.00;3.00;;;;;20.91;43.92;101686.50;5004006;28;51148;-55
2021/10/16 03:18:37;;;;;;;;;3.00;3.00;;;;;20.90;43.96;101675.72;4997011;28;51061;-55
2021/10/16 03:21:02;;;;;;;;;3.75;3.75;;;;;20.90;44.08;101684.81;4998782;28;51423;-54
2021/10/16 03:23:28;;;;;;;;;5.00;4.75;;;;;20.90;44.13;101678.47;4999900;28;51092;-56
2021/10/16 03:25:53;;;;;;;;;5.00;5.00;;;;;20.89;44.14;101682.28;5015804;28;51073;-55
2021/10/16 03:28:18;;;;;;;;;3.50;3.00;;;;;20.89;44.09;101676.75;4997765;28;51577;-55
2021/10/16 03:30:44;;;;;;;;;5.00;5.00;;;;;20.89;44.33;101682.28;4998603;28;51393;-56
2021/10/16 03:33:10;;;;;;;;;3.75;3.75;;;;;20.88;44.18;101686.94;4997142;28;51032;-55
2021/10/16 03:35:35;;;;;;;;;3.25;3.00;;;;;20.87;44.26;101682.47;5012028;28;51174;-51
2021/10/16 03:38:00;;;;;;;;;3.00;3.00;;;;;20.87;43.99;101682.47;5015947;28;51274;-51
2021/10/16 03:40:26;;;;;;;;;4.00;4.00;;;;;20.88;44.17;101688.84;5015105;28;51190;-52
2021/10/16 03:42:51;;;;;;;;;3.00;3.00;;;;;20.87;44.48;101689.91;5015949;28;50993;-53
2021/10/16 03:45:17;;;;;;;;;3.50;3.00;;;;;20.87;44.09;101681.63;5016120;28;51059;-55
2021/10/16 03:47:42;;;;;;;;;4.75;4.00;;;;;20.85;44.03;101679.09;5003341;28;51139;-54
2021/10/16 03:50:08;;;;;;;;;4.00;2.25;;;;;20.86;44.41;101682.69;4998041;28;51318;-55
2021/10/16 03:52:34;;;;;;;;;3.75;3.75;;;;;20.85;44.42;101675.50;4996788;28;52123;-55
2021/10/16 03:54:59;;;;;;;;;5.25;4.00;;;;;20.85;43.94;101676.34;4996599;28;51221;-54
2021/10/16 03:57:25;;;;;;;;;4.75;4.50;;;;;20.85;44.21;101676.34;4998435;28;51310;-55
2021/10/16 03:59:50;;;;;;;;;5.25;4.00;;;;;20.84;44.20;101679.25;4997840;28;51408;-55
2021/10/16 04:02:18;;;;;;;;;3.25;2.75;;;;;20.84;44.41;101674.63;5012570;28;52811;-55
2021/10/16 04:04:43;;;;;;;;;4.50;4.50;;;;;20.84;44.24;101680.16;5012544;28;51115;-57
2021/10/16 04:07:09;;;;;;;;;3.00;3.00;;;;;20.84;44.51;101685.66;4997035;28;51291;-54
2021/10/16 04:09:34;;;;;;;;;4.00;4.00;;;;;20.84;44.50;101684.78;4997458;28;51235;-54
2021/10/16 04:11:59;;;;;;;;;4.00;3.00;;;;;20.84;44.53;101690.28;5005006;28;51154;-55
2021/10/16 04:14:25;;;;;;;;;3.25;3.00;;;;;20.84;44.36;101695.78;5015837;28;51039;-54
2021/10/16 04:16:50;;;;;;;;;6.00;3.00;;;;;20.84;44.53;101687.53;5015190;28;51584;-55
2021/10/16 04:19:15;;;;;;;;;3.00;3.00;;;;;20.83;44.19;101692.19;5013986;28;51390;-56
2021/10/16 04:21:41;;;;;;;;;5.00;5.00;;;;;20.83;44.44;101696.84;5015869;28;51703;-56
2021/10/16 04:24:06;;;;;;;;;2.75;2.75;;;;;20.83;44.07;101699.59;5015583;28;51062;-55
2021/10/16 04:26:31;;;;;;;;;2.75;2.75;;;;;20.82;43.94;101690.50;5009301;28;51119;-55
2021/10/16 04:28:57;;;;;;;;;2.25;2.25;;;;;20.83;44.11;101696.84;4997802;28;51056;-54
2021/10/16 04:31:22;;;;;;;;;1.75;1.75;;;;;20.81;44.20;101693.44;4996291;28;50941;-55
2021/10/16 04:33:48;;;;;;;;;4.00;2.00;;;;;20.81;44.14;101696.22;4996129;28;51098;-54
2021/10/16 04:36:13;;;;;;;;;3.00;3.00;;;;;20.81;44.45;101699.81;4980937;28;51354;-53
2021/10/16 04:38:44;;;;;;;;;4.00;4.00;;;;;20.80;43.98;101702.78;5011123;28;51069;-53
2021/10/16 04:41:09;;;;;;;;;4.50;4.50;;;;;20.81;44.15;101701.72;4996093;28;51192;-53
2021/10/16 04:43:35;;;;;;;;;3.50;2.75;;;;;20.80;44.43;101697.25;4997154;28;51178;-55
2021/10/16 04:46:00;;;;;;;;;5.75;3.00;;;;;20.79;43.97;101692.81;5015264;28;52572;-53
2021/10/16 04:48:25;;;;;;;;;4.00;3.25;;;;;20.79;44.39;101695.56;5013877;28;51172;-54
2021/10/16 04:50:52;;;;;;;;;3.00;2.00;;;;;20.79;44.39;101701.06;5015243;28;51100;-55
2021/10/16 04:53:17;;;;;;;;;3.25;3.25;;;;;20.78;44.33;101699.38;5005846;28;51565;-52
2021/10/16 04:55:42;;;;;;;;;4.00;4.00;;;;;20.78;44.28;101702.13;5014948;28;51140;-54
2021/10/16 04:58:08;;;;;;;;;4.75;3.75;;;;;20.78;44.47;101702.13;5005251;28;50994;-54
2021/10/16 05:00:33;;;;;;;;;3.25;3.25;;;;;20.77;44.37;101704.03;5001341;28;51160;-55
2021/10/16 05:02:58;;;;;;;;;4.00;4.00;;;;;20.77;44.10;101708.69;4997026;28;51058;-54
2021/10/16 05:05:24;;;;;;;;;3.00;3.00;;;;;20.78;44.41;101707.63;5014389;28;50975;-52
2021/10/16 05:07:49;;;;;;;;;3.50;2.75;;;;;20.76;44.58;101707.84;5002639;28;51170;-56
2021/10/16 05:10:14;;;;;;;;;4.25;4.25;;;;;20.76;44.24;101707.84;5009614;28;51788;-55
2021/10/16 05:12:40;;;;;;;;;2.00;2.00;;;;;20.77;44.30;101715.06;5014982;28;51278;-56
2021/10/16 05:15:05;;;;;;;;;3.00;3.00;;;;;20.77;44.50;101719.72;4997575;28;51086;-54
2021/10/16 05:17:31;;;;;;;;;3.50;3.50;;;;;20.76;44.13;101721.63;5000265;28;51044;-54
2021/10/16 05:19:56;;;;;;;;;3.00;3.00;;;;;20.77;44.16;101733.47;5005994;28;51058;-56
2021/10/16 05:22:22;;;;;;;;;4.00;2.00;;;;;20.75;44.15;101734.53;5015137;28;51223;-56
2021/10/16 05:24:47;;;;;;;;;6.25;4.75;;;;;20.75;44.47;101719.91;5014710;28;51144;-56
2021/10/16 05:27:12;;;;;;;;;3.00;3.00;;;;;20.75;44.27;101726.28;5004561;28;51139;-56
2021/10/16 05:29:38;;;;;;;;;3.00;3.00;;;;;20.75;44.45;101723.53;4995454;28;51027;-58
2021/10/16 05:32:03;;;;;;;;;3.75;3.00;;;;;20.74;44.30;101724.56;4996930;28;51091;-54
2021/10/16 05:34:29;;;;;;;;;2.75;2.50;;;;;20.74;44.50;101726.47;5004968;28;51717;-55
2021/10/16 05:36:54;;;;;;;;;2.75;2.75;;;;;20.74;44.07;101720.97;4997337;28;51129;-55
2021/10/16 05:39:19;;;;;;;;;3.75;2.75;;;;;20.73;43.96;101714.59;4995103;28;51055;-55
2021/10/16 05:41:47;;;;;;;;;3.00;3.00;;;;;20.74;44.71;101710.81;4997785;28;51185;-55
2021/10/16 05:44:12;;;;;;;;;2.25;2.00;;;;;20.77;44.28;101722.47;4995553;28;51264;-54
2021/10/16 05:46:38;;;;;;;;;4.00;3.00;;;;;20.78;45.04;101714.00;5005770;28;51190;-56
2021/10/16 05:49:04;;;;;;;;;5.25;4.25;;;;;20.80;44.63;101717.38;5017698;28;51855;-57
2021/10/16 05:51:30;;;;;;;;;7.25;4.25;;;;;20.80;44.68;101714.63;5014995;28;51197;-53
2021/10/16 05:53:55;;;;;;;;;5.25;4.00;;;;;20.81;44.49;101716.34;5018170;28;51034;-55
2021/10/16 05:56:21;;;;;;;;;6.25;6.00;;;;;20.84;44.69;101715.06;5010633;28;51019;-56
2021/10/16 05:58:46;;;;;;;;;5.50;4.00;;;;;20.84;44.65;101715.94;4998377;28;51106;-57
2021/10/16 06:01:11;;;;;;;;;5.00;3.75;;;;;20.84;44.91;101715.94;5017594;28;51118;-58
2021/10/16 06:03:36;;;;;;;;;5.50;3.25;;;;;20.85;44.87;101711.28;5017239;28;51062;-59
2021/10/16 06:06:02;;;;;;;;;6.00;5.00;;;;;20.83;44.93;101722.47;5016491;28;51154;-58
2021/10/16 06:08:27;;;;;;;;;7.50;5.25;;;;;20.83;44.79;101725.22;4998347;28;51701;-56
2021/10/16 06:10:53;;;;;;;;;7.00;5.00;;;;;20.83;44.64;101729.88;5013842;28;51058;-53
2021/10/16 06:13:18;;;;;;;;;6.25;5.75;;;;;20.82;44.30;101729.03;5015513;28;51194;-56
2021/10/16 06:15:44;;;;;;;;;10.25;7.25;;;;;20.83;44.43;101727.13;5006590;28;51192;-55
2021/10/16 06:18:13;;;;;;;;;5.00;5.00;;;;;20.80;44.04;101731.16;5004227;28;52032;-53
2021/10/16 06:20:39;;;;;;;;;7.75;5.00;;;;;20.79;43.82;101720.34;5015936;28;51063;-56
2021/10/16 06:23:05;;;;;;;;;5.50;5.00;;;;;20.78;44.17;101726.91;5003846;28;51304;-58
2021/10/16 06:25:30;;;;;;;;;6.25;4.25;;;;;20.77;43.89;101725.22;5011422;28;51358;-56
2021/10/16 06:27:55;;;;;;;;;4.50;4.50;;;;;20.76;44.38;101732.63;5008164;28;51185;-53
2021/10/16 06:30:21;;;;;;;;;3.75;3.75;;;;;20.75;44.06;101728.19;4999184;28;51413;-56
2021/10/16 06:32:46;;;;;;;;;4.25;4.00;;;;;20.75;44.01;101726.28;4999409;28;51072;-56
2021/10/16 06:35:12;;;;;;;;;5.75;4.00;;;;;20.74;44.25;101721.81;5003315;28;51294;-55
2021/10/16 06:37:37;;;;;;;;;5.00;3.00;;;;;20.74;44.43;101734.75;4998037;28;51188;-56
2021/10/16 06:40:03;;;;;;;;;5.25;4.00;;;;;20.74;44.32;101738.34;4997793;28;50920;-53
2021/10/16 06:42:28;;;;;;;;;4.25;2.00;;;;;20.74;44.26;101734.75;4998163;28;51143;-51
2021/10/16 06:44:53;;;;;;;;;3.50;3.50;;;;;20.78;44.22;101740.69;5008587;28;51667;-53
2021/10/16 06:47:19;;;;;;;;;5.25;4.25;;;;;20.86;44.33;101740.53;5009735;28;52050;-51
2021/10/16 06:49:44;;;;;;;;;3.00;3.00;;;;;20.93;44.45;101741.38;4997694;28;51110;-54
2021/10/16 06:52:09;;;;;;;;;3.00;3.00;;;;;21.02;44.22;101735.50;4998190;28;51043;-50
2021/10/16 06:54:35;;;;;;;;;5.50;4.00;;;;;21.11;44.20;101736.19;4992184;28;51067;-52
2021/10/16 06:57:00;;;;;;;;;5.75;3.25;;;;;21.20;43.81;101732.19;4997585;28;52134;-53
2021/10/16 06:59:25;;;;;;;;;3.75;3.75;;;;;21.30;44.00;101738.22;4996751;28;51120;-51
2021/10/16 07:01:51;;;;;;;;;2.75;2.75;;;;;21.38;43.52;101734.44;4997887;28;51123;-50
2021/10/16 07:04:16;;;;;;;;;6.00;5.00;;;;;21.47;43.35;101744.22;5006054;28;51269;-51
2021/10/16 07:06:42;;;;;;;;;5.75;3.00;;;;;21.52;43.59;101738.91;5002797;28;51796;-53
2021/10/16 07:09:07;;;;;;;;;5.00;3.00;;;;;21.57;43.18;101741.03;5008482;28;51083;-49
2021/10/16 07:11:33;;;;;;;;;6.00;5.00;;;;;21.56;43.56;101748.47;5006075;28;51535;-54
2021/10/16 07:13:58;;;;;;;;;5.25;4.00;;;;;21.55;43.05;101741.25;5009124;28;51154;-53
2021/10/16 07:16:23;;;;;;;;;6.00;3.00;;;;;21.56;43.24;101753.13;4997355;28;52015;-54
2021/10/16 07:18:49;;;;;;;;;5.50;3.50;;;;;21.58;43.37;101745.53;4999334;28;51212;-55
2021/10/16 07:21:14;;;;;;;;;4.75;4.50;;;;;21.63;43.38;101756.75;5008574;28;51547;-55
2021/10/16 07:23:39;;;;;;;;;3.25;3.25;;;;;21.70;43.75;101754.03;5016559;28;50973;-55
2021/10/16 07:26:05;;;;;;;;;6.00;4.25;;;;;21.72;43.72;101763.78;5013941;28;51695;-54
2021/10/16 07:28:31;;;;;;;;;4.00;2.75;;;;;21.73;43.54;101764.63;4998739;28;51044;-54
2021/10/16 07:30:56;;;;;;;;;5.25;4.00;;;;;21.73;43.37;101759.13;5006034;28;51202;-55
2021/10/16 07:33:22;;;;;;;;;3.75;3.75;;;;;21.72;43.87;101766.53;5016845;28;51271;-55
2021/10/16 07:35:48;;;;;;;;;4.00;4.00;;;;;21.73;43.90;101764.63;4998824;28;51121;-51
2021/10/16 07:38:14;;;;;;;;;5.00;4.00;;;;;21.78;43.87;101768.47;4996977;28;51008;-57
2021/10/16 07:40:41;;;;;;;;;3.00;2.00;;;;;21.82;43.36;101771.66;5003127;28;51190;-54
2021/10/16 07:43:07;;;;;;;;;6.00;4.25;;;;;21.83;43.65;101760.41;5016061;28;51407;-54
2021/10/16 07:45:32;;;;;;;;;4.00;4.00;;;;;21.83;43.19;101765.94;5004434;28;51024;-54
2021/10/16 07:47:58;;;;;;;;;5.00;4.00;;;;;21.81;43.24;101767.22;4996713;28;51074;-55
2021/10/16 07:50:23;;;;;;;;;4.25;4.00;;;;;21.79;43.25;101767.41;5002523;28;51319;-53
2021/10/16 07:52:48;;;;;;;;;3.25;3.00;;;;;21.77;43.38;101772.25;5004252;28;51027;-53
2021/10/16 07:55:14;;;;;;;;;3.00;3.00;;;;;21.79;43.72;101772.09;4996412;28;51308;-54
2021/10/16 07:57:39;;;;;;;;;3.50;3.00;;;;;21.83;43.70;101765.09;4996722;28;51201;-52
2021/10/16 08:00:06;;;;;;;;;3.50;3.50;;;;;21.88;43.49;101766.16;4999111;28;51088;-53
2021/10/16 08:02:31;;;;;;;;;3.00;3.00;;;;;21.91;43.02;101764.88;5006112;28;51216;-54
2021/10/16 08:04:59;;;;;;;;;6.25;4.50;;;;;21.91;43.13;101762.13;5015332;28;51131;-54
2021/10/16 08:07:25;;;;;;;;;3.00;3.00;;;;;21.89;43.06;101773.38;5015696;28;51655;-55
2021/10/16 08:09:50;;;;;;;;;5.75;4.00;;;;;21.88;43.04;101768.03;5008618;28;51173;-54
2021/10/16 08:12:16;;;;;;;;;6.75;3.75;;;;;21.86;43.00;101767.41;5000024;28;51145;-51
2021/10/16 08:14:41;;;;;;;;;4.00;4.00;;;;;21.85;43.19;101765.72;5000795;28;52119;-55
2021/10/16 08:17:06;;;;;;;;;3.50;3.00;;;;;21.83;43.03;101765.94;4996469;28;51059;-53
2021/10/16 08:19:32;;;;;;;;;6.25;3.25;;;;;21.82;43.03;101774.41;4996417;28;51159;-58
2021/10/16 08:21:57;;;;;;;;;9.00;5.50;;;;;21.79;43.06;101783.97;5005410;28;51164;-50
2021/10/16 08:24:22;;;;;;;;;4.75;3.50;;;;;21.77;43.67;101774.19;4996731;28;50956;-53
2021/10/16 08:26:48;;;;;;;;;4.00;3.00;;;;;21.75;43.47;101766.13;4998709;28;51157;-54
2021/10/16 08:29:13;;;;;;;;;6.00;4.25;;;;;21.74;43.45;101761.66;5004934;28;51147;-54
2021/10/16 08:31:39;;;;;;;;;7.00;6.00;;;;;21.72;43.48;101771.22;5015660;28;50948;-53
2021/10/16 08:34:05;;;;;;;;;4.25;3.00;;;;;21.70;43.35;101770.56;5000923;28;51034;-53
2021/10/16 08:36:30;;;;;;;;;3.00;3.00;;;;;21.68;42.91;101767.19;4995703;28;51153;-54
2021/10/16 08:38:56;;;;;;;;;4.25;3.00;;;;;21.66;43.02;101775.63;4995924;28;51156;-51
2021/10/16 08:41:21;;;;;;;;;3.75;3.75;;;;;21.63;43.76;101773.31;4996375;28;51023;-48
2021/10/16 08:43:46;;;;;;;;;4.25;4.25;;;;;21.63;43.20;101772.47;5006377;28;51788;-53
2021/10/16 08:46:13;;;;;;;;;7.00;5.00;;;;;21.61;43.11;101779.03;5015149;28;51149;-50
2021/10/16 08:48:40;;;;;;;;;6.75;4.25;;;;;21.61;43.42;101783.69;5008793;28;51018;-52
2021/10/16 08:51:06;;;;;;;;;3.25;3.00;;;;;21.62;44.13;101785.38;4999946;28;51382;-53
2021/10/16 08:53:31;;;;;;;;;5.00;3.00;;;;;21.65;43.49;101795.16;4998244;28;51159;-52
2021/10/16 08:55:57;;;;;;;;;6.00;3.25;;;;;21.66;43.70;101786.66;4997351;28;51211;-52
2021/10/16 08:58:22;;;;;;;;;2.00;2.00;;;;;21.68;43.99;101790.09;4995604;28;50975;-50
2021/10/16 09:00:52;;;;;;;;;5.00;4.00;;;;;21.72;44.58;101802.41;4995304;28;51338;-50
2021/10/16 09:03:25;;;;;;;;;4.00;3.75;;;;;21.76;44.66;101809.19;4994985;28;51857;-54
2021/10/16 09:06:15;;;;;;;;;3.50;3.00;;;;;21.81;44.84;101797.53;4993097;28;51123;-60
2021/10/16 09:08:59;;;;;;;;;12.50;3.50;;;;;21.87;44.73;101804.97;4995014;28;51146;-53
2021/10/16 09:11:29;;;;;;;;;5.25;3.75;;;;;21.90;44.74;101802.66;4995247;28;51042;-56
2021/10/16 09:14:06;;;;;;;;;7.00;3.25;;;;;21.95;44.27;101801.16;5004260;28;51154;-55
2021/10/16 09:16:39;;;;;;;;;3.00;3.00;;;;;22.00;44.59;101798.66;5004616;28;51393;-60
2021/10/16 09:19:10;;;;;;;;;4.00;2.00;;;;;22.03;44.70;101789.94;5012289;28;51130;-56
2021/10/16 09:21:44;;;;;;;;;3.00;3.00;;;;;22.07;44.37;101792.09;5013670;28;51224;-55
2021/10/16 09:24:36;;;;;;;;;4.00;3.25;;;;;22.13;44.50;101802.31;5006065;28;52771;-54
2021/10/16 09:27:05;;;;;;;;;3.25;3.25;;;;;22.16;44.02;101792.75;4994586;28;51702;-54
2021/10/16 09:29:33;;;;;;;;;6.25;5.75;;;;;22.19;43.63;101789.56;5005685;28;51242;-55
2021/10/16 09:32:09;;;;;;;;;3.25;3.25;;;;;22.21;43.18;101790.22;5013608;28;51441;-55
2021/10/16 09:34:36;;;;;;;;;5.25;3.50;;;;;22.24;43.59;101787.03;5007278;28;51926;-54
2021/10/16 09:37:03;;;;;;;;;5.00;3.00;;;;;22.27;42.83;101794.03;4996726;28;51053;-55
2021/10/16 09:39:29;;;;;;;;;8.00;6.00;;;;;22.30;42.72;101794.47;5013779;28;51174;-55
2021/10/16 09:41:54;;;;;;;;;6.00;3.75;;;;;22.33;42.70;101795.94;5013834;28;51037;-55
2021/10/16 09:44:28;;;;;;;;;5.00;5.00;;;;;22.33;43.05;101791.28;5014201;28;51042;-57
2021/10/16 09:46:58;;;;;;;;;5.25;3.00;;;;;22.36;42.50;101787.25;4997696;28;51057;-56
2021/10/16 09:49:54;;;;;;;;;5.25;4.25;;;;;22.38;42.70;101788.72;4994380;28;51139;-56
2021/10/16 09:52:20;;;;;;;;;5.25;4.75;;;;;22.40;42.63;101789.34;4980178;28;51102;-56
2021/10/16 09:54:49;;;;;;;;;5.25;4.25;;;;;22.41;43.05;101785.56;4994185;28;51124;-57
2021/10/16 09:57:20;;;;;;;;;3.75;3.25;;;;;22.44;42.45;101787.88;5001886;28;50942;-54
2021/10/16 09:59:46;;;;;;;;;5.75;4.00;;;;;22.45;42.35;101781.28;4995640;28;51233;-56
2021/10/16 10:02:14;;;;;;;;;3.50;3.25;;;;;22.48;42.64;101788.28;5007291;28;51005;-56
2021/10/16 10:04:45;;;;;;;;;4.00;3.75;;;;;22.51;42.85;101789.78;5003144;28;51049;-55
2021/10/16 10:07:12;;;;;;;;;4.00;4.00;;;;;22.51;42.94;101784.25;5006517;28;51161;-55
2021/10/16 10:09:41;;;;;;;;;4.75;4.25;;;;;22.54;42.42;101783.84;5011914;28;51347;-55
2021/10/16 10:12:09;;;;;;;;;5.75;4.25;;;;;22.55;43.17;101778.09;5009554;28;51124;-57
2021/10/16 10:14:37;;;;;;;;;4.00;3.50;;;;;22.57;42.98;101783.41;4993082;28;51813;-56
2021/10/16 10:17:04;;;;;;;;;3.00;3.00;;;;;22.60;42.62;101777.44;4993979;28;51372;-55
2021/10/16 10:19:31;;;;;;;;;4.75;3.25;;;;;22.61;42.39;101779.13;5007562;28;50966;-55
2021/10/16 10:21:57;;;;;;;;;4.50;4.50;;;;;22.62;42.85;101794.69;5012427;28;51195;-57
2021/10/16 10:24:37;;;;;;;;;4.25;4.25;;;;;22.63;42.34;101788.94;4993588;28;51874;-59
2021/10/16 10:27:08;;;;;;;;;5.25;3.75;;;;;22.65;42.36;101795.09;5001314;28;51186;-58
2021/10/16 10:29:39;;;;;;;;;5.75;4.00;;;;;22.64;41.71;101785.09;4993864;28;51571;-59
2021/10/16 10:32:13;;;;;;;;;6.00;6.00;;;;;22.65;41.29;101791.47;4994056;28;51213;-59
2021/10/16 10:34:41;;;;;;;;;5.25;5.00;;;;;22.65;41.43;101789.56;4977486;28;53435;-59
2021/10/16 10:37:16;;;;;;;;;5.75;5.25;;;;;22.66;40.61;101788.50;4996887;28;51307;-58
2021/10/16 10:39:45;;;;;;;;;4.00;4.00;;;;;22.67;40.44;101784.66;5000479;28;51024;-59
2021/10/16 10:42:13;;;;;;;;;5.75;4.50;;;;;22.69;40.30;101784.44;5016618;28;51212;-59
2021/10/16 10:44:47;;;;;;;;;8.50;8.50;;;;;22.69;39.50;101788.06;5015838;28;51915;-59
2021/10/16 10:47:32;;;;;;;;;10.75;9.00;;;;;22.63;38.96;101782.56;5004138;28;51277;-59
2021/10/16 10:50:10;;;;;;;;;5.50;5.50;;;;;22.55;39.22;101774.50;5001406;28;51072;-58
2021/10/16 10:53:05;;;;;;;;;11.75;6.50;;;;;22.56;40.00;101784.47;5015011;28;51224;-58
2021/10/16 10:55:30;;;;;;;;;6.00;6.00;;;;;22.57;39.47;101786.16;5014158;28;51106;-57
2021/10/16 10:58:00;;;;;;;;;7.00;6.75;;;;;22.59;40.25;101778.50;5001857;28;50960;-54
2021/10/16 11:00:29;;;;;;;;;6.25;5.00;;;;;22.61;40.25;101781.91;5010117;28;51190;-53
2021/10/16 11:02:55;;;;;;;;;7.00;6.00;;;;;22.63;39.93;101777.03;4998221;28;51333;-56
2021/10/16 11:05:36;;;;;;;;;7.00;5.00;;;;;22.66;40.46;101776.59;4996106;28;51964;-56
2021/10/16 11:08:07;;;;;;;;;4.75;4.00;;;;;22.67;40.61;101770.84;4995883;28;52606;-55
2021/10/16 11:10:33;;;;;;;;;6.50;4.00;;;;;22.69;40.60;101765.97;5008997;28;51136;-57
2021/10/16 11:13:19;;;;;;;;;4.25;4.25;;;;;22.70;40.35;101759.38;4998239;28;52638;-56
2021/10/16 11:15:55;;;;;;;;;4.00;4.00;;;;;22.72;40.85;101765.56;5009124;28;51811;-54
2021/10/16 11:18:20;;;;;;;;;7.50;4.00;;;;;22.74;40.69;101771.72;5005395;28;51413;-56
2021/10/16 11:20:46;;;;;;;;;4.25;4.00;;;;;22.74;40.94;101760.66;5000658;28;51016;-55
2021/10/16 11:23:23;;;;;;;;;3.75;3.75;;;;;22.74;40.93;101768.94;5003749;28;50996;-55